sensor_id;sensor_type;location;lat;lon;timestamp;temperature;humidity
16060;DHT22;8134;49.552;7.632;2022-08-18T07:34:22;21.90;99.90
16060;DHT22;8134;49.552;7.632;2022-08-18T07:37:04;21.90;99.90
16060;DHT22;8134;49.552;7.632;2022-08-18T08:11:54;22.10;99.90
16060;DHT22;8134;49.552;7.632;2022-08-18T08:14:35;22.10;99.90
16060;DHT22;8134;49.552;7.632;2022-08-18T08:17:06;22.20;99.90
16060;DHT22;8134;49.552;7.632;2022-08-18T08:25:11;22.20;99.90
16060;DHT22;8134;49.552;7.632;2022-08-18T08:30:09;22.20;99.90
16060;DHT22;8134;49.552;7.632;2022-08-18T08:32:43;22.20;99.90
16060;DHT22;8134;49.552;7.632;2022-08-18T08:35:12;22.20;99.90
16060;DHT22;8134;49.552;7.632;2022-08-18T08:37:50;22.20;99.90
16060;DHT22;8134;49.552;7.632;2022-08-18T08:40:27;22.20;99.90
16060;DHT22;8134;49.552;7.632;2022-08-18T08:42:57;22.10;99.90
16060;DHT22;8134;49.552;7.632;2022-08-18T08:45:33;22.10;99.90
16060;DHT22;8134;49.552;7.632;2022-08-18T11:01:26;23.60;99.90
16060;DHT22;8134;49.552;7.632;2022-08-18T11:04:00;23.50;99.90
16060;DHT22;8134;49.552;7.632;2022-08-18T11:06:27;23.40;99.90
16060;DHT22;8134;49.552;7.632;2022-08-18T11:08:58;23.30;99.90
16060;DHT22;8134;49.552;7.632;2022-08-18T11:11:25;23.30;99.90
16060;DHT22;8134;49.552;7.632;2022-08-18T11:16:52;23.20;99.90
16060;DHT22;8134;49.552;7.632;2022-08-18T11:19:19;23.20;99.90
16060;DHT22;8134;49.552;7.632;2022-08-18T11:21:47;23.20;99.90
16060;DHT22;8134;49.552;7.632;2022-08-18T11:26:44;23.30;99.90
16060;DHT22;8134;49.552;7.632;2022-08-18T11:31:41;23.50;99.90
16060;DHT22;8134;49.552;7.632;2022-08-18T11:34:11;23.50;99.90
16060;DHT22;8134;49.552;7.632;2022-08-18T11:36:38;23.60;99.90
16060;DHT22;8134;49.552;7.632;2022-08-18T11:39:07;23.80;99.90
16060;DHT22;8134;49.552;7.632;2022-08-18T11:41:33;23.90;99.90
16060;DHT22;8134;49.552;7.632;2022-08-18T11:43:59;24.00;99.90
16060;DHT22;8134;49.552;7.632;2022-08-18T11:46:28;23.90;99.90
16060;DHT22;8134;49.552;7.632;2022-08-18T11:48:54;23.90;99.90
16060;DHT22;8134;49.552;7.632;2022-08-18T11:51:28;23.80;99.90
16060;DHT22;8134;49.552;7.632;2022-08-18T11:53:55;23.90;99.90
16060;DHT22;8134;49.552;7.632;2022-08-18T11:56:23;23.90;99.90
16060;DHT22;8134;49.552;7.632;2022-08-18T11:58:51;23.90;99.90
16060;DHT22;8134;49.552;7.632;2022-08-18T12:06:40;23.90;99.90
16060;DHT22;8134;49.552;7.632;2022-08-18T12:09:15;23.90;99.90
16060;DHT22;8134;49.552;7.632;2022-08-18T12:11:53;23.90;99.90
16060;DHT22;8134;49.552;7.632;2022-08-18T12:14:25;23.90;99.90
16060;DHT22;8134;49.552;7.632;2022-08-18T12:16:51;24.00;99.90
16060;DHT22;8134;49.552;7.632;2022-08-18T12:19:16;24.00;99.90
16060;DHT22;8134;49.552;7.632;2022-08-18T12:21:43;24.10;99.90
16060;DHT22;8134;49.552;7.632;2022-08-18T12:24:28;24.10;99.90
16060;DHT22;8134;49.552;7.632;2022-08-18T12:26:54;24.10;99.90
16060;DHT22;8134;49.552;7.632;2022-08-18T12:29:20;24.10;99.90
16060;DHT22;8134;49.552;7.632;2022-08-18T12:31:47;24.00;99.80
16060;DHT22;8134;49.552;7.632;2022-08-18T12:34:24;24.10;99.90
16060;DHT22;8134;49.552;7.632;2022-08-18T12:36:51;24.00;99.70
16060;DHT22;8134;49.552;7.632;2022-08-18T12:39:17;24.10;99.90
16060;DHT22;8134;49.552;7.632;2022-08-18T12:41:43;24.10;99.90
16060;DHT22;8134;49.552;7.632;2022-08-18T12:44:09;24.10;99.90
16060;DHT22;8134;49.552;7.632;2022-08-18T12:46:34;24.10;99.90
16060;DHT22;8134;49.552;7.632;2022-08-18T12:49:02;24.10;99.90
16060;DHT22;8134;49.552;7.632;2022-08-18T12:51:29;24.10;99.00
16060;DHT22;8134;49.552;7.632;2022-08-18T12:53:54;24.10;98.80
16060;DHT22;8134;49.552;7.632;2022-08-18T12:56:21;24.10;98.60
16060;DHT22;8134;49.552;7.632;2022-08-18T12:58:47;24.00;98.40
16060;DHT22;8134;49.552;7.632;2022-08-18T13:01:14;24.10;99.20
16060;DHT22;8134;49.552;7.632;2022-08-18T13:03:40;24.10;98.30
16060;DHT22;8134;49.552;7.632;2022-08-18T13:06:05;24.20;98.40
16060;DHT22;8134;49.552;7.632;2022-08-18T13:08:31;24.20;97.50
16060;DHT22;8134;49.552;7.632;2022-08-18T13:10:59;24.30;97.80
16060;DHT22;8134;49.552;7.632;2022-08-18T13:13:25;24.30;98.30
16060;DHT22;8134;49.552;7.632;2022-08-18T13:15:51;24.30;97.70
16060;DHT22;8134;49.552;7.632;2022-08-18T13:18:18;24.40;97.60
16060;DHT22;8134;49.552;7.632;2022-08-18T13:20:44;24.50;98.40
16060;DHT22;8134;49.552;7.632;2022-08-18T13:23:09;24.60;97.50
16060;DHT22;8134;49.552;7.632;2022-08-18T13:25:35;24.70;96.80
16060;DHT22;8134;49.552;7.632;2022-08-18T13:28:00;24.70;96.20
16060;DHT22;8134;49.552;7.632;2022-08-18T13:30:26;24.90;97.60
16060;DHT22;8134;49.552;7.632;2022-08-18T13:32:52;25.10;97.30
16060;DHT22;8134;49.552;7.632;2022-08-18T13:35:17;25.20;97.40
16060;DHT22;8134;49.552;7.632;2022-08-18T13:37:43;25.30;96.20
16060;DHT22;8134;49.552;7.632;2022-08-18T13:40:09;25.40;94.90
16060;DHT22;8134;49.552;7.632;2022-08-18T13:42:43;25.60;95.70
16060;DHT22;8134;49.552;7.632;2022-08-18T13:45:10;25.70;96.20
16060;DHT22;8134;49.552;7.632;2022-08-18T13:47:36;25.70;95.20
16060;DHT22;8134;49.552;7.632;2022-08-18T13:50:02;25.80;95.20
16060;DHT22;8134;49.552;7.632;2022-08-18T13:52:28;25.80;95.20
16060;DHT22;8134;49.552;7.632;2022-08-18T13:54:55;25.80;94.90
16060;DHT22;8134;49.552;7.632;2022-08-18T13:57:21;25.90;95.20
16060;DHT22;8134;49.552;7.632;2022-08-18T13:59:47;26.00;94.80
16060;DHT22;8134;49.552;7.632;2022-08-18T14:02:13;26.00;94.90
16060;DHT22;8134;49.552;7.632;2022-08-18T14:04:38;25.90;92.40
16060;DHT22;8134;49.552;7.632;2022-08-18T14:07:05;25.80;90.00
16060;DHT22;8134;49.552;7.632;2022-08-18T14:09:33;25.70;90.40
16060;DHT22;8134;49.552;7.632;2022-08-18T14:12:01;25.60;91.50
16060;DHT22;8134;49.552;7.632;2022-08-18T14:14:26;25.60;91.00
16060;DHT22;8134;49.552;7.632;2022-08-18T14:16:52;25.60;90.50
16060;DHT22;8134;49.552;7.632;2022-08-18T14:19:17;25.60;90.30
16060;DHT22;8134;49.552;7.632;2022-08-18T14:22:02;25.60;88.40
16060;DHT22;8134;49.552;7.632;2022-08-18T14:24:46;25.80;89.50
16060;DHT22;8134;49.552;7.632;2022-08-18T14:27:35;26.00;90.00
16060;DHT22;8134;49.552;7.632;2022-08-18T14:30:10;26.10;88.90
16060;DHT22;8134;49.552;7.632;2022-08-18T14:32:36;26.10;90.00
16060;DHT22;8134;49.552;7.632;2022-08-18T14:35:02;26.10;88.50
16060;DHT22;8134;49.552;7.632;2022-08-18T14:37:29;26.10;87.90
16060;DHT22;8134;49.552;7.632;2022-08-18T14:39:55;26.00;87.80
16060;DHT22;8134;49.552;7.632;2022-08-18T14:42:20;26.00;86.90
16060;DHT22;8134;49.552;7.632;2022-08-18T14:44:47;26.00;87.50
16060;DHT22;8134;49.552;7.632;2022-08-18T14:47:13;26.00;88.10
16060;DHT22;8134;49.552;7.632;2022-08-18T14:49:38;26.00;89.30
16060;DHT22;8134;49.552;7.632;2022-08-18T14:52:04;26.00;87.40
16060;DHT22;8134;49.552;7.632;2022-08-18T14:54:31;25.90;88.10
16060;DHT22;8134;49.552;7.632;2022-08-18T14:56:57;25.90;87.30
16060;DHT22;8134;49.552;7.632;2022-08-18T14:59:22;26.00;87.80
16060;DHT22;8134;49.552;7.632;2022-08-18T15:01:49;25.90;86.80
16060;DHT22;8134;49.552;7.632;2022-08-18T15:04:15;25.90;86.80
16060;DHT22;8134;49.552;7.632;2022-08-18T15:06:41;25.90;86.50
16060;DHT22;8134;49.552;7.632;2022-08-18T15:09:06;26.00;89.00
16060;DHT22;8134;49.552;7.632;2022-08-18T15:11:33;26.10;87.00
16060;DHT22;8134;49.552;7.632;2022-08-18T15:13:59;26.20;85.80
16060;DHT22;8134;49.552;7.632;2022-08-18T15:16:25;26.30;85.40
16060;DHT22;8134;49.552;7.632;2022-08-18T15:18:51;26.40;85.10
16060;DHT22;8134;49.552;7.632;2022-08-18T15:21:16;26.50;86.10
16060;DHT22;8134;49.552;7.632;2022-08-18T15:24:00;26.50;83.70
16060;DHT22;8134;49.552;7.632;2022-08-18T15:26:44;26.50;84.30
16060;DHT22;8134;49.552;7.632;2022-08-18T15:29:12;26.60;86.40
16060;DHT22;8134;49.552;7.632;2022-08-18T15:31:37;26.80;84.30
16060;DHT22;8134;49.552;7.632;2022-08-18T15:34:04;26.80;84.60
16060;DHT22;8134;49.552;7.632;2022-08-18T15:36:31;26.80;83.50
16060;DHT22;8134;49.552;7.632;2022-08-18T15:38:58;26.80;83.80
16060;DHT22;8134;49.552;7.632;2022-08-18T15:41:34;26.80;84.50
16060;DHT22;8134;49.552;7.632;2022-08-18T15:44:01;26.80;83.40
16060;DHT22;8134;49.552;7.632;2022-08-18T15:46:27;26.80;84.90
16060;DHT22;8134;49.552;7.632;2022-08-18T15:48:55;26.80;82.60
16060;DHT22;8134;49.552;7.632;2022-08-18T16:00:48;26.90;82.50
16060;DHT22;8134;49.552;7.632;2022-08-18T16:09:44;26.80;82.90
16060;DHT22;8134;49.552;7.632;2022-08-18T16:12:10;26.70;81.80
16060;DHT22;8134;49.552;7.632;2022-08-18T16:14:45;26.70;81.80
16060;DHT22;8134;49.552;7.632;2022-08-18T16:17:10;26.70;82.50
16060;DHT22;8134;49.552;7.632;2022-08-18T16:19:36;26.70;82.40
16060;DHT22;8134;49.552;7.632;2022-08-18T16:25:05;26.70;82.80
16060;DHT22;8134;49.552;7.632;2022-08-18T16:27:36;26.70;85.20
16060;DHT22;8134;49.552;7.632;2022-08-18T16:32:53;26.70;84.10
16060;DHT22;8134;49.552;7.632;2022-08-18T16:35:19;26.60;81.60
16060;DHT22;8134;49.552;7.632;2022-08-18T16:47:00;26.60;85.10
16060;DHT22;8134;49.552;7.632;2022-08-18T16:49:28;26.50;83.30
16060;DHT22;8134;49.552;7.632;2022-08-18T16:51:54;26.40;82.70
16060;DHT22;8134;49.552;7.632;2022-08-18T16:54:20;26.40;82.60
16060;DHT22;8134;49.552;7.632;2022-08-18T16:56:46;26.30;82.30
16060;DHT22;8134;49.552;7.632;2022-08-18T17:08:22;26.20;83.20
16060;DHT22;8134;49.552;7.632;2022-08-18T17:13:53;26.10;83.90
16060;DHT22;8134;49.552;7.632;2022-08-18T17:28:19;25.80;82.50
16060;DHT22;8134;49.552;7.632;2022-08-18T17:30:46;25.80;82.30
16060;DHT22;8134;49.552;7.632;2022-08-18T17:33:14;25.80;83.00
16060;DHT22;8134;49.552;7.632;2022-08-18T17:35:43;25.70;82.60
16060;DHT22;8134;49.552;7.632;2022-08-18T17:40:48;25.60;83.20
16060;DHT22;8134;49.552;7.632;2022-08-18T17:46:26;25.50;83.80
16060;DHT22;8134;49.552;7.632;2022-08-18T17:49:01;25.50;84.20
16060;DHT22;8134;49.552;7.632;2022-08-18T18:29:30;24.30;88.70
16060;DHT22;8134;49.552;7.632;2022-08-18T18:34:36;24.40;87.80
16060;DHT22;8134;49.552;7.632;2022-08-18T18:58:40;24.40;90.90
16060;DHT22;8134;49.552;7.632;2022-08-18T19:07:14;24.20;92.20
16060;DHT22;8134;49.552;7.632;2022-08-18T19:15:29;23.90;92.80
16060;DHT22;8134;49.552;7.632;2022-08-18T19:17:59;23.80;93.00
16060;DHT22;8134;49.552;7.632;2022-08-18T20:18:19;23.30;94.20
16060;DHT22;8134;49.552;7.632;2022-08-18T20:41:59;23.40;95.10
16060;DHT22;8134;49.552;7.632;2022-08-18T21:20:50;23.10;95.90
16060;DHT22;8134;49.552;7.632;2022-08-18T21:41:51;22.80;96.60
16060;DHT22;8134;49.552;7.632;2022-08-18T21:46:50;22.70;97.00
16060;DHT22;8134;49.552;7.632;2022-08-18T22:41:15;21.70;98.80
